createdAt,value
2022-12-31T00:02:18.996Z,24.03
2022-12-31T00:04:45.694Z,24.13
2022-12-31T00:07:12.350Z,24.47
2022-12-31T00:09:39.058Z,24.83
2022-12-31T00:12:05.875Z,26.97
2022-12-31T00:14:32.415Z,29.13
2022-12-31T00:16:59.016Z,29.00
2022-12-31T00:19:25.677Z,30.50
2022-12-31T00:21:52.305Z,28.57
2022-12-31T00:24:18.901Z,29.10
2022-12-31T00:26:45.503Z,27.20
2022-12-31T00:29:12.257Z,30.53
2022-12-31T00:31:39.413Z,24.23
2022-12-31T00:34:07.141Z,22.53
2022-12-31T00:36:37.321Z,22.93
2022-12-31T00:39:06.131Z,25.50
2022-12-31T00:41:32.803Z,20.80
2022-12-31T00:43:59.707Z,24.70
2022-12-31T00:46:26.608Z,22.33
2022-12-31T00:48:53.531Z,19.83
2022-12-31T00:51:23.268Z,20.00
2022-12-31T00:53:50.276Z,17.30
2022-12-31T00:56:20.235Z,22.80
2022-12-31T00:58:47.450Z,24.05
2022-12-31T01:01:20.014Z,25.07
2022-12-31T01:03:48.946Z,24.77
2022-12-31T01:06:16.252Z,23.03
2022-12-31T01:08:43.838Z,22.07
2022-12-31T01:11:24.606Z,19.63
2022-12-31T01:13:54.893Z,22.13
2022-12-31T01:16:25.453Z,22.05
2022-12-31T01:18:53.058Z,20.93
2022-12-31T01:21:21.013Z,24.23
2022-12-31T01:23:47.985Z,21.50
2022-12-31T01:26:16.656Z,23.50
2022-12-31T01:28:43.286Z,23.17
2022-12-31T01:31:12.881Z,25.43
2022-12-31T01:33:40.549Z,25.23
2022-12-31T01:36:11.484Z,22.80
2022-12-31T01:38:38.607Z,22.87
2022-12-31T01:41:05.619Z,28.23
2022-12-31T01:43:54.224Z,29.13
2022-12-31T01:46:25.848Z,28.53
2022-12-31T01:48:57.829Z,33.73
2022-12-31T01:51:27.317Z,23.73
2022-12-31T01:53:54.783Z,25.13
2022-12-31T01:56:22.911Z,29.17
2022-12-31T01:58:52.339Z,30.00
2022-12-31T02:01:29.102Z,19.30
2022-12-31T02:03:57.912Z,19.60
2022-12-31T02:06:32.016Z,22.10
2022-12-31T02:08:58.652Z,25.20
2022-12-31T02:11:28.976Z,25.20
2022-12-31T02:14:00.570Z,32.15
2022-12-31T02:16:46.161Z,23.47
2022-12-31T02:19:43.627Z,20.53
2022-12-31T02:22:38.715Z,19.83
2022-12-31T02:25:30.053Z,21.70
2022-12-31T02:28:44.772Z,17.53
2022-12-31T02:31:35.469Z,16.10
2022-12-31T02:34:21.868Z,15.63
2022-12-31T02:36:52.093Z,18.87
2022-12-31T02:39:18.721Z,19.30
2022-12-31T02:41:52.083Z,19.80
2022-12-31T02:44:38.750Z,18.07
2022-12-31T02:47:11.492Z,24.80
2022-12-31T02:49:53.193Z,19.90
2022-12-31T02:52:38.370Z,25.37
2022-12-31T02:55:49.946Z,25.40
2022-12-31T02:58:46.424Z,22.13
2022-12-31T03:01:36.993Z,20.57
2022-12-31T03:04:24.452Z,19.20
2022-12-31T03:06:52.555Z,18.87
2022-12-31T03:09:19.216Z,17.77
2022-12-31T03:12:04.961Z,19.10
2022-12-31T03:14:31.501Z,18.13
2022-12-31T03:16:58.104Z,17.37
2022-12-31T03:19:43.032Z,16.77
2022-12-31T03:22:27.885Z,16.17
2022-12-31T03:25:20.331Z,15.17
2022-12-31T03:27:47.433Z,15.60
2022-12-31T03:30:16.889Z,17.50
2022-12-31T03:32:45.114Z,14.70
2022-12-31T03:35:14.155Z,15.67
2022-12-31T03:37:41.324Z,12.77
2022-12-31T03:40:11.052Z,11.87
2022-12-31T03:42:37.869Z,15.60
2022-12-31T03:45:05.359Z,11.03
2022-12-31T03:47:32.011Z,13.63
2022-12-31T03:49:58.647Z,10.73
2022-12-31T03:52:25.177Z,12.77
2022-12-31T03:54:51.717Z,12.13
2022-12-31T03:57:18.411Z,14.07
2022-12-31T03:59:45.027Z,16.03
2022-12-31T04:02:11.758Z,15.80
2022-12-31T04:04:38.432Z,15.20
2022-12-31T04:07:04.993Z,15.73
2022-12-31T04:09:31.569Z,15.13
2022-12-31T04:11:58.338Z,15.87
2022-12-31T04:14:24.930Z,15.33
2022-12-31T04:16:51.612Z,14.40
2022-12-31T04:19:18.272Z,16.17
2022-12-31T04:21:44.897Z,17.67
2022-12-31T04:24:11.610Z,16.33
2022-12-31T04:26:38.582Z,17.07
2022-12-31T04:29:05.696Z,17.73
2022-12-31T04:31:33.355Z,15.80
2022-12-31T04:33:59.961Z,16.83
2022-12-31T04:36:27.286Z,17.43
2022-12-31T04:38:53.980Z,15.80
2022-12-31T04:41:21.185Z,19.10
2022-12-31T04:43:50.498Z,18.63
2022-12-31T04:46:19.679Z,18.47
2022-12-31T04:48:46.427Z,16.03
2022-12-31T04:51:13.994Z,18.93
2022-12-31T04:53:41.216Z,17.80
2022-12-31T04:56:08.815Z,19.30
2022-12-31T04:58:36.953Z,17.60
2022-12-31T05:01:04.016Z,16.93
2022-12-31T05:03:31.290Z,16.97
2022-12-31T05:06:02.780Z,14.50
2022-12-31T05:08:30.003Z,16.10
2022-12-31T05:10:56.715Z,14.13
2022-12-31T05:13:28.068Z,18.27
2022-12-31T05:15:59.587Z,18.67
2022-12-31T05:18:26.443Z,16.80
2022-12-31T05:20:53.068Z,15.23
2022-12-31T05:23:19.910Z,13.47
2022-12-31T05:25:47.900Z,19.13
2022-12-31T05:28:15.475Z,16.37
2022-12-31T05:30:43.032Z,21.27
2022-12-31T05:33:10.032Z,19.70
2022-12-31T05:35:37.216Z,16.90
2022-12-31T05:38:03.890Z,16.07
2022-12-31T05:40:30.485Z,15.37
2022-12-31T05:42:57.129Z,15.97
2022-12-31T05:45:30.143Z,13.23
2022-12-31T05:47:57.504Z,15.23
2022-12-31T05:50:24.344Z,17.50
2022-12-31T05:52:50.888Z,14.10
2022-12-31T05:55:17.715Z,16.53
2022-12-31T05:57:44.383Z,13.57
2022-12-31T06:00:11.751Z,12.70
2022-12-31T06:02:38.516Z,14.43
2022-12-31T06:05:05.811Z,14.97
2022-12-31T06:07:32.460Z,15.77
2022-12-31T06:09:59.194Z,12.90
2022-12-31T06:12:25.942Z,12.80
2022-12-31T06:14:52.608Z,12.87
2022-12-31T06:17:19.288Z,13.73
2022-12-31T06:19:46.930Z,16.63
2022-12-31T06:22:13.666Z,14.50
2022-12-31T06:24:40.280Z,13.43
2022-12-31T06:27:06.898Z,13.10
2022-12-31T06:29:33.618Z,14.67
2022-12-31T06:32:00.374Z,13.17
2022-12-31T06:34:27.053Z,12.70
2022-12-31T06:36:53.606Z,12.90
2022-12-31T06:39:20.159Z,14.03
2022-12-31T06:41:47.176Z,11.90
2022-12-31T06:44:14.957Z,12.60
2022-12-31T06:46:41.664Z,11.90
2022-12-31T06:49:09.485Z,10.43
2022-12-31T06:51:36.156Z,11.47
2022-12-31T06:54:02.757Z,13.60
2022-12-31T06:56:34.392Z,11.57
2022-12-31T06:59:03.250Z,12.10
2022-12-31T07:01:48.371Z,11.20
2022-12-31T07:04:32.967Z,11.37
2022-12-31T07:07:21.472Z,9.73
2022-12-31T07:10:29.769Z,9.03
2022-12-31T07:13:17.718Z,10.00
2022-12-31T07:15:52.821Z,11.03
2022-12-31T07:18:43.864Z,9.67
2022-12-31T07:21:16.533Z,8.93
2022-12-31T07:23:43.763Z,9.97
2022-12-31T07:26:42.729Z,11.93
2022-12-31T07:29:18.972Z,8.43
2022-12-31T07:32:16.453Z,9.10
2022-12-31T07:35:04.919Z,10.10
2022-12-31T07:37:45.092Z,10.93
2022-12-31T07:43:12.306Z,9.67
2022-12-31T07:46:01.531Z,9.13
2022-12-31T07:48:29.142Z,8.13
2022-12-31T07:50:57.467Z,11.17
2022-12-31T07:53:26.108Z,9.10
2022-12-31T07:55:59.883Z,8.23
2022-12-31T07:58:33.190Z,10.20
2022-12-31T08:01:00.653Z,7.80
2022-12-31T08:04:09.662Z,8.10
2022-12-31T08:07:13.832Z,11.20
2022-12-31T08:09:49.196Z,11.13
2022-12-31T08:12:16.605Z,8.57
2022-12-31T08:14:46.118Z,11.13
2022-12-31T08:17:18.094Z,6.55
2022-12-31T08:19:45.968Z,6.57
2022-12-31T08:22:50.399Z,9.17
2022-12-31T08:25:23.722Z,5.97
2022-12-31T08:28:04.883Z,6.63
2022-12-31T08:30:52.328Z,5.47
2022-12-31T08:33:40.459Z,5.30
2022-12-31T08:36:45.589Z,5.43
2022-12-31T08:39:35.961Z,5.77
2022-12-31T08:42:12.266Z,5.90
2022-12-31T08:44:41.852Z,5.67
2022-12-31T08:47:32.883Z,5.80
2022-12-31T08:50:02.532Z,5.60
2022-12-31T08:52:29.393Z,5.43
2022-12-31T08:54:56.283Z,10.23
2022-12-31T08:57:59.381Z,6.00
2022-12-31T09:00:27.753Z,5.63
2022-12-31T09:03:20.836Z,6.10
2022-12-31T09:06:12.984Z,5.70
2022-12-31T09:08:55.844Z,6.07
2022-12-31T09:11:33.124Z,7.23
2022-12-31T09:14:08.655Z,6.80
2022-12-31T09:17:00.159Z,7.80
2022-12-31T09:19:27.249Z,5.90
2022-12-31T09:21:54.229Z,8.70
2022-12-31T09:24:21.607Z,6.23
2022-12-31T09:26:51.138Z,7.83
2022-12-31T09:29:29.759Z,5.43
2022-12-31T09:31:56.418Z,5.63
2022-12-31T09:34:41.452Z,4.93
2022-12-31T09:37:16.505Z,4.33
2022-12-31T09:39:46.738Z,4.97
2022-12-31T09:42:51.038Z,4.23
2022-12-31T09:45:47.458Z,4.63
2022-12-31T09:48:35.777Z,4.20
2022-12-31T09:51:25.255Z,4.20
2022-12-31T09:53:52.250Z,4.13
2022-12-31T09:57:06.905Z,3.70
2022-12-31T09:59:34.462Z,4.67
2022-12-31T10:02:34.837Z,3.80
2022-12-31T10:05:31.379Z,4.30
2022-12-31T10:08:10.197Z,4.03
2022-12-31T10:11:17.022Z,3.80
2022-12-31T10:14:06.744Z,3.80
2022-12-31T10:19:34.595Z,4.00
2022-12-31T10:22:35.401Z,4.40
2022-12-31T10:25:38.360Z,6.03
2022-12-31T10:28:31.188Z,3.83
2022-12-31T10:31:11.332Z,4.10
2022-12-31T10:34:06.776Z,4.23
2022-12-31T10:37:02.249Z,4.50
2022-12-31T10:39:50.834Z,3.67
2022-12-31T10:42:39.077Z,3.67
2022-12-31T10:45:39.639Z,3.60
2022-12-31T10:48:37.055Z,3.83
2022-12-31T10:51:15.443Z,4.70
2022-12-31T10:54:18.984Z,4.73
2022-12-31T10:57:11.358Z,4.10
2022-12-31T10:59:56.909Z,3.97
2022-12-31T11:02:29.803Z,3.80
2022-12-31T11:05:03.169Z,3.73
2022-12-31T11:08:01.812Z,3.70
2022-12-31T11:11:00.972Z,3.45
2022-12-31T11:13:57.950Z,4.28
2022-12-31T11:16:43.091Z,3.63
2022-12-31T11:19:31.512Z,4.23
2022-12-31T11:22:04.022Z,3.57
2022-12-31T11:25:02.108Z,4.83
2022-12-31T11:28:03.369Z,3.97
2022-12-31T11:30:36.934Z,4.37
2022-12-31T11:33:21.876Z,3.77
2022-12-31T11:36:09.371Z,4.83
2022-12-31T11:38:51.045Z,3.80
2022-12-31T11:41:42.683Z,4.50
2022-12-31T11:44:30.151Z,5.03
2022-12-31T11:47:04.498Z,4.93
2022-12-31T11:49:31.095Z,3.80
2022-12-31T11:52:35.280Z,4.20
2022-12-31T11:55:20.654Z,3.97
2022-12-31T11:57:50.730Z,3.50
2022-12-31T12:00:28.536Z,3.70
2022-12-31T12:03:03.566Z,3.70
2022-12-31T12:05:30.863Z,3.70
2022-12-31T12:07:57.710Z,4.30
2022-12-31T12:10:35.608Z,3.87
2022-12-31T12:13:13.746Z,3.90
2022-12-31T12:15:44.795Z,5.03
2022-12-31T12:18:25.235Z,4.23
2022-12-31T12:20:52.050Z,5.30
2022-12-31T12:23:26.105Z,4.07
2022-12-31T12:25:53.378Z,4.20
2022-12-31T12:28:26.927Z,3.83
2022-12-31T12:31:05.153Z,4.43
2022-12-31T12:33:43.871Z,4.37
2022-12-31T12:36:13.851Z,5.03
2022-12-31T12:38:40.434Z,4.70
2022-12-31T12:41:20.247Z,3.83
2022-12-31T12:43:47.226Z,6.37
2022-12-31T12:46:27.788Z,4.50
2022-12-31T12:48:56.799Z,5.50
2022-12-31T12:52:01.762Z,4.28
2022-12-31T12:54:59.521Z,4.53
2022-12-31T12:57:41.011Z,4.30
2022-12-31T13:00:21.078Z,3.80
2022-12-31T13:03:06.065Z,4.03
2022-12-31T13:06:00.337Z,3.80
2022-12-31T13:08:33.244Z,6.53
2022-12-31T13:11:19.016Z,4.07
2022-12-31T13:14:05.469Z,4.53
2022-12-31T13:16:50.578Z,4.60
2022-12-31T13:19:46.763Z,4.57
2022-12-31T13:22:30.308Z,4.80
2022-12-31T13:25:16.948Z,4.70
2022-12-31T13:27:48.253Z,4.93
2022-12-31T13:30:28.250Z,5.43
2022-12-31T13:33:05.312Z,9.40
2022-12-31T13:35:47.501Z,5.73
2022-12-31T13:38:24.294Z,4.40
2022-12-31T13:41:03.093Z,5.23
2022-12-31T13:44:10.766Z,5.30
2022-12-31T13:46:46.462Z,4.30
2022-12-31T13:49:32.043Z,4.10
2022-12-31T13:52:43.212Z,4.17
2022-12-31T13:55:20.329Z,5.37
2022-12-31T13:57:55.462Z,4.13
2022-12-31T14:00:31.359Z,8.53
2022-12-31T14:03:11.032Z,4.30
2022-12-31T14:05:51.838Z,4.43
2022-12-31T14:08:19.010Z,4.57
2022-12-31T14:11:29.495Z,4.73
2022-12-31T14:14:25.620Z,4.80
2022-12-31T14:17:01.421Z,4.60
2022-12-31T14:19:55.656Z,4.70
2022-12-31T14:22:39.322Z,5.30
2022-12-31T14:25:22.607Z,4.80
2022-12-31T14:27:53.492Z,4.37
2022-12-31T14:30:23.280Z,5.13
2022-12-31T14:33:29.873Z,5.53
2022-12-31T14:36:14.207Z,5.30
2022-12-31T14:39:06.303Z,5.53
2022-12-31T14:41:51.587Z,5.80
2022-12-31T14:44:23.011Z,5.00
2022-12-31T14:47:04.882Z,6.93
2022-12-31T14:50:03.765Z,8.13
2022-12-31T14:52:46.763Z,7.22
2022-12-31T14:55:36.946Z,6.03
2022-12-31T14:58:29.444Z,5.93
2022-12-31T15:01:01.625Z,5.67
2022-12-31T15:03:31.364Z,12.13
2022-12-31T15:06:06.087Z,8.18
2022-12-31T15:09:07.620Z,5.40
2022-12-31T15:11:56.662Z,8.87
2022-12-31T15:14:51.170Z,7.67
2022-12-31T15:17:17.785Z,6.93
2022-12-31T15:20:14.986Z,18.83
2022-12-31T15:22:50.669Z,10.70
2022-12-31T15:25:36.949Z,6.47
2022-12-31T15:28:21.166Z,7.28
2022-12-31T15:30:49.753Z,8.20
2022-12-31T15:33:30.133Z,9.27
2022-12-31T15:35:57.853Z,8.70
2022-12-31T15:38:34.924Z,8.53
2022-12-31T15:41:24.780Z,8.50
2022-12-31T15:44:02.222Z,7.03
2022-12-31T15:46:33.842Z,8.90
2022-12-31T15:49:09.003Z,8.67
2022-12-31T15:52:07.437Z,9.07
2022-12-31T15:54:44.327Z,12.37
2022-12-31T15:57:30.001Z,9.17
2022-12-31T16:00:08.997Z,12.23
2022-12-31T16:02:39.388Z,10.65
2022-12-31T16:05:08.697Z,12.03
2022-12-31T16:07:35.705Z,12.10
2022-12-31T16:10:04.159Z,20.17
2022-12-31T16:12:39.456Z,18.60
2022-12-31T16:15:24.691Z,16.70
2022-12-31T16:18:06.097Z,21.30
2022-12-31T16:20:34.399Z,17.37
2022-12-31T16:23:03.428Z,18.17
2022-12-31T16:25:33.566Z,17.42
2022-12-31T16:28:03.199Z,17.03
2022-12-31T16:30:32.559Z,17.70
2022-12-31T16:33:02.549Z,16.33
2022-12-31T16:35:36.564Z,14.13
2022-12-31T16:38:10.219Z,16.70
2022-12-31T16:40:36.948Z,16.33
2022-12-31T16:43:04.386Z,15.43
2022-12-31T16:45:38.702Z,17.73
2022-12-31T16:48:17.188Z,19.33
2022-12-31T16:50:46.996Z,15.23
2022-12-31T16:53:18.161Z,17.48
2022-12-31T16:56:19.991Z,15.57
2022-12-31T16:58:46.625Z,18.10
2022-12-31T17:01:20.916Z,17.33
2022-12-31T17:03:52.473Z,18.73
2022-12-31T17:06:21.176Z,22.00
2022-12-31T17:09:00.795Z,16.17
2022-12-31T17:11:33.226Z,15.85
2022-12-31T17:14:05.927Z,18.83
2022-12-31T17:16:34.698Z,13.37
2022-12-31T17:19:01.819Z,13.50
2022-12-31T17:21:31.447Z,14.13
2022-12-31T17:24:03.300Z,12.00
2022-12-31T17:26:37.157Z,16.50
2022-12-31T17:29:06.130Z,19.70
2022-12-31T17:31:40.440Z,18.30
2022-12-31T17:34:13.055Z,29.43
2022-12-31T17:37:15.913Z,25.97
2022-12-31T17:39:46.488Z,30.37
2022-12-31T17:42:24.787Z,28.77
2022-12-31T17:44:56.704Z,25.83
2022-12-31T17:47:23.399Z,19.07
2022-12-31T17:49:50.206Z,21.10
2022-12-31T17:52:16.775Z,16.20
2022-12-31T17:54:43.446Z,20.13
2022-12-31T17:57:24.273Z,17.40
2022-12-31T17:59:51.111Z,14.93
2022-12-31T18:02:17.812Z,16.57
2022-12-31T18:04:44.616Z,14.50
2022-12-31T18:07:11.228Z,22.80
2022-12-31T18:09:37.861Z,12.47
2022-12-31T18:12:06.192Z,14.00
2022-12-31T18:14:33.484Z,10.93
2022-12-31T18:17:00.804Z,15.13
2022-12-31T18:20:02.933Z,11.83
2022-12-31T18:22:16.232Z,12.43
2022-12-31T18:24:44.047Z,9.37
2022-12-31T18:27:18.539Z,12.10
2022-12-31T18:29:45.500Z,10.47
2022-12-31T18:32:24.148Z,13.80
2022-12-31T18:34:51.421Z,17.07
2022-12-31T18:37:22.065Z,11.90
2022-12-31T18:39:49.368Z,10.77
2022-12-31T18:42:18.599Z,11.07
2022-12-31T18:44:45.856Z,10.13
2022-12-31T18:47:14.585Z,12.00
2022-12-31T18:49:41.554Z,10.23
2022-12-31T18:52:16.671Z,12.57
2022-12-31T18:54:43.513Z,16.50
2022-12-31T18:57:14.920Z,19.10
2022-12-31T18:59:42.408Z,14.13
2022-12-31T19:02:20.081Z,18.37
2022-12-31T19:04:48.158Z,20.07
2022-12-31T19:07:14.740Z,25.27
2022-12-31T19:09:46.007Z,39.73
2022-12-31T19:12:14.276Z,27.83
2022-12-31T19:14:40.940Z,32.23
2022-12-31T19:19:32.997Z,28.00
2022-12-31T19:21:59.567Z,13.87
2022-12-31T19:24:27.299Z,12.17
2022-12-31T19:26:54.751Z,13.27
2022-12-31T19:29:23.925Z,10.47
2022-12-31T19:31:51.204Z,12.90
2022-12-31T19:34:17.960Z,15.20
2022-12-31T19:36:45.088Z,13.47
2022-12-31T19:39:20.034Z,12.67
2022-12-31T19:41:51.687Z,14.20
2022-12-31T19:44:22.945Z,12.07
2022-12-31T19:46:49.575Z,15.33
2022-12-31T19:49:16.626Z,13.90
2022-12-31T19:51:43.408Z,13.07
2022-12-31T19:54:12.892Z,15.13
2022-12-31T19:56:39.544Z,14.15
2022-12-31T19:59:08.142Z,16.20
2022-12-31T20:01:34.985Z,16.53
2022-12-31T20:04:01.675Z,15.53
2022-12-31T20:06:28.318Z,15.07
2022-12-31T20:08:55.113Z,15.97
2022-12-31T20:11:23.975Z,13.73
2022-12-31T20:13:52.785Z,14.25
2022-12-31T20:16:21.380Z,14.80
2022-12-31T20:18:51.336Z,18.23
2022-12-31T20:21:21.673Z,14.17
2022-12-31T20:23:50.140Z,15.50
2022-12-31T20:26:17.788Z,12.80
2022-12-31T20:28:44.521Z,14.53
2022-12-31T20:31:15.074Z,17.37
2022-12-31T20:33:42.220Z,16.10
2022-12-31T20:36:12.494Z,12.83
2022-12-31T20:38:39.119Z,14.53
2022-12-31T20:41:11.487Z,17.17
2022-12-31T20:43:38.864Z,17.27
2022-12-31T20:46:16.634Z,15.30
2022-12-31T20:48:46.231Z,14.67
2022-12-31T20:51:14.348Z,14.82
2022-12-31T20:53:46.488Z,13.07
2022-12-31T20:56:13.105Z,13.07
2022-12-31T20:58:39.682Z,15.73
2022-12-31T21:01:07.964Z,74.93
2022-12-31T21:06:28.655Z,23.73
2022-12-31T21:09:00.158Z,30.37
2022-12-31T21:11:45.885Z,21.70
2022-12-31T21:14:12.581Z,20.40
2022-12-31T21:16:39.319Z,18.87
2022-12-31T21:19:06.163Z,34.73
2022-12-31T21:21:33.071Z,24.27
2022-12-31T21:23:59.752Z,30.33
2022-12-31T21:26:26.379Z,33.10
2022-12-31T21:28:53.941Z,45.33
2022-12-31T21:31:20.784Z,18.80
2022-12-31T21:33:48.533Z,17.87
2022-12-31T21:36:15.900Z,17.70
2022-12-31T21:38:42.667Z,15.00
2022-12-31T21:41:33.603Z,14.17
2022-12-31T21:44:01.456Z,11.97
2022-12-31T21:46:28.419Z,11.50
2022-12-31T21:48:59.740Z,10.47
2022-12-31T21:51:27.327Z,12.63
2022-12-31T21:53:54.360Z,14.83
2022-12-31T21:56:22.626Z,13.20
2022-12-31T21:59:14.464Z,12.93
2022-12-31T22:01:59.772Z,14.43
2022-12-31T22:07:13.365Z,11.17
2022-12-31T22:09:39.974Z,11.83
2022-12-31T22:12:06.711Z,9.87
2022-12-31T22:14:33.306Z,10.57
2022-12-31T22:17:00.921Z,11.03
2022-12-31T22:19:27.582Z,10.73
2022-12-31T22:21:54.537Z,10.13
2022-12-31T22:24:21.100Z,11.33
2022-12-31T22:26:47.640Z,12.00
2022-12-31T22:29:14.508Z,12.13
2022-12-31T22:31:41.124Z,12.87
2022-12-31T22:34:07.821Z,13.07
2022-12-31T22:36:34.455Z,11.03
2022-12-31T22:39:01.053Z,12.43
2022-12-31T22:41:28.350Z,14.63
2022-12-31T22:44:03.065Z,14.00
2022-12-31T22:46:31.345Z,17.13
2022-12-31T22:48:59.655Z,23.77
2022-12-31T22:51:57.026Z,42.00
2022-12-31T22:54:15.254Z,21.27
2022-12-31T22:56:42.068Z,23.13
2022-12-31T22:59:09.503Z,14.73
2022-12-31T23:01:36.179Z,33.53
2022-12-31T23:04:03.721Z,19.90
2022-12-31T23:06:30.412Z,26.53
2022-12-31T23:09:32.417Z,25.37
2022-12-31T23:11:59.742Z,23.43
2022-12-31T23:14:45.112Z,23.27
2022-12-31T23:17:44.145Z,26.07
2022-12-31T23:20:36.001Z,29.42
2022-12-31T23:23:05.838Z,26.30
2022-12-31T23:25:34.342Z,23.83
2022-12-31T23:28:01.191Z,20.83
2022-12-31T23:30:28.141Z,30.67
2022-12-31T23:32:54.977Z,34.43
2022-12-31T23:35:21.858Z,31.13
2022-12-31T23:37:48.553Z,35.67
2022-12-31T23:40:20.982Z,25.77
2022-12-31T23:42:49.119Z,19.73
2022-12-31T23:45:15.871Z,19.60
2022-12-31T23:47:42.466Z,21.30
2022-12-31T23:50:09.127Z,22.73
2022-12-31T23:52:35.796Z,21.60
2022-12-31T23:55:03.745Z,18.40
2022-12-31T23:57:30.659Z,20.17
2022-12-31T23:59:57.303Z,20.77
